createdAt,value
2023-05-03T00:01:16.229Z,6.22
2023-05-03T00:04:18.539Z,5.83
2023-05-03T00:07:22.868Z,5.70
2023-05-03T00:10:25.340Z,5.68
2023-05-03T00:13:26.946Z,5.80
2023-05-03T00:16:28.508Z,5.57
2023-05-03T00:19:34.008Z,5.60
2023-05-03T00:22:36.846Z,5.90
2023-05-03T00:25:39.094Z,6.50
2023-05-03T00:28:41.344Z,6.13
2023-05-03T00:31:46.212Z,6.03
2023-05-03T00:34:52.653Z,6.03
2023-05-03T00:37:54.263Z,6.32
2023-05-03T00:40:56.826Z,6.47
2023-05-03T00:43:58.489Z,6.40
2023-05-03T00:47:01.553Z,6.18
2023-05-03T00:50:05.117Z,6.18
2023-05-03T00:53:07.229Z,5.80
2023-05-03T00:56:09.896Z,6.10
2023-05-03T00:59:12.598Z,6.32
2023-05-03T01:02:14.647Z,6.65
2023-05-03T01:05:17.427Z,6.43
2023-05-03T01:08:59.057Z,6.88
2023-05-03T01:12:11.985Z,6.88
2023-05-03T01:15:33.745Z,7.22
2023-05-03T01:18:40.271Z,6.70
2023-05-03T01:21:47.856Z,7.10
2023-05-03T01:24:56.167Z,6.75
2023-05-03T01:27:58.581Z,7.00
2023-05-03T01:31:01.292Z,6.55
2023-05-03T01:34:26.200Z,7.28
2023-05-03T01:37:28.558Z,6.60
2023-05-03T01:40:33.300Z,6.75
2023-05-03T01:43:37.004Z,7.60
2023-05-03T01:46:44.085Z,6.70
2023-05-03T01:49:46.861Z,6.13
2023-05-03T01:52:52.928Z,6.82
2023-05-03T01:55:54.559Z,6.75
2023-05-03T01:58:56.584Z,6.63
2023-05-03T02:01:58.371Z,6.85
2023-05-03T02:05:01.595Z,6.70
2023-05-03T02:08:03.537Z,6.67
2023-05-03T02:11:06.573Z,6.80
2023-05-03T02:14:08.184Z,6.78
2023-05-03T02:17:11.586Z,7.05
2023-05-03T02:20:13.715Z,7.18
2023-05-03T02:23:15.413Z,6.65
2023-05-03T02:26:17.797Z,6.82
2023-05-03T02:29:20.329Z,6.70
2023-05-03T02:32:22.667Z,7.15
2023-05-03T02:35:24.329Z,7.05
2023-05-03T02:38:26.579Z,7.60
2023-05-03T02:41:28.789Z,7.15
2023-05-03T02:44:33.614Z,7.95
2023-05-03T02:47:36.032Z,8.13
2023-05-03T02:50:39.070Z,8.25
2023-05-03T02:53:41.139Z,8.77
2023-05-03T02:56:43.187Z,8.55
2023-05-03T02:59:45.368Z,8.30
2023-05-03T03:02:47.682Z,8.48
2023-05-03T03:05:49.839Z,8.35
2023-05-03T03:08:51.509Z,8.30
2023-05-03T03:11:53.557Z,9.15
2023-05-03T03:14:56.933Z,8.80
2023-05-03T03:17:59.886Z,8.68
2023-05-03T03:21:03.322Z,9.00
2023-05-03T03:24:06.859Z,8.25
2023-05-03T03:27:09.035Z,8.57
2023-05-03T03:30:11.843Z,8.27
2023-05-03T03:33:24.639Z,8.48
2023-05-03T03:36:31.620Z,8.13
2023-05-03T03:39:33.399Z,8.63
2023-05-03T03:42:36.541Z,8.63
2023-05-03T03:45:39.565Z,8.90
2023-05-03T03:48:41.297Z,9.05
2023-05-03T03:51:43.312Z,9.15
2023-05-03T03:54:45.572Z,9.85
2023-05-03T03:57:48.754Z,9.23
2023-05-03T04:00:51.875Z,9.23
2023-05-03T04:03:56.955Z,9.73
2023-05-03T04:06:59.092Z,9.52
2023-05-03T04:10:03.266Z,9.17
2023-05-03T04:13:06.360Z,10.25
2023-05-03T04:16:08.335Z,9.93
2023-05-03T04:19:11.793Z,9.68
2023-05-03T04:22:16.497Z,9.88
2023-05-03T04:25:18.488Z,9.52
2023-05-03T04:28:27.506Z,9.57
2023-05-03T04:31:30.081Z,9.20
2023-05-03T04:34:33.457Z,10.15
2023-05-03T04:37:39.077Z,9.50
2023-05-03T04:40:41.768Z,9.70
2023-05-03T04:43:45.009Z,9.23
2023-05-03T04:46:50.238Z,9.68
2023-05-03T04:49:52.574Z,9.60
2023-05-03T04:52:57.121Z,9.93
2023-05-03T04:56:00.724Z,9.82
2023-05-03T04:59:05.561Z,9.85
2023-05-03T05:02:09.131Z,10.17
2023-05-03T05:05:11.757Z,9.68
2023-05-03T05:08:13.406Z,10.02
2023-05-03T05:11:23.934Z,9.40
2023-05-03T05:14:28.396Z,9.65
2023-05-03T05:17:31.278Z,9.00
2023-05-03T05:20:35.589Z,9.55
2023-05-03T05:23:43.468Z,10.85
2023-05-03T05:26:47.046Z,9.63
2023-05-03T05:29:51.468Z,10.40
2023-05-03T05:32:53.942Z,9.93
2023-05-03T05:35:56.168Z,10.27
2023-05-03T05:38:58.806Z,10.18
2023-05-03T05:42:01.945Z,9.53
2023-05-03T05:45:04.702Z,10.25
2023-05-03T05:48:06.723Z,9.98
2023-05-03T05:51:09.916Z,9.80
2023-05-03T05:54:11.967Z,8.82
2023-05-03T05:57:14.389Z,9.48
2023-05-03T06:00:17.403Z,9.60
2023-05-03T06:03:20.582Z,9.30
2023-05-03T06:06:26.606Z,8.95
2023-05-03T06:09:30.117Z,8.93
2023-05-03T06:12:37.317Z,9.57
2023-05-03T06:15:46.110Z,9.98
2023-05-03T06:18:48.788Z,9.82
2023-05-03T06:21:50.479Z,9.55
2023-05-03T06:24:54.176Z,9.40
2023-05-03T06:27:58.300Z,10.18
2023-05-03T06:31:04.825Z,9.55
2023-05-03T06:34:11.371Z,9.37
2023-05-03T06:37:17.530Z,9.85
2023-05-03T06:40:24.864Z,9.70
2023-05-03T06:43:26.870Z,9.43
2023-05-03T06:46:33.063Z,9.90
2023-05-03T06:49:36.071Z,10.10
2023-05-03T06:52:37.872Z,9.77
2023-05-03T06:55:39.730Z,10.50
2023-05-03T06:58:45.506Z,10.30
2023-05-03T07:01:47.323Z,9.80
2023-05-03T07:04:50.463Z,9.77
2023-05-03T07:07:52.093Z,10.15
2023-05-03T07:10:53.682Z,10.38
2023-05-03T07:13:56.101Z,9.87
2023-05-03T07:16:59.231Z,10.02
2023-05-03T07:20:05.040Z,10.07
2023-05-03T07:23:07.351Z,9.95
2023-05-03T07:26:09.120Z,10.02
2023-05-03T07:29:11.153Z,10.40
2023-05-03T07:32:13.319Z,9.80
2023-05-03T07:35:17.938Z,9.40
2023-05-03T07:38:19.575Z,9.88
2023-05-03T07:41:21.629Z,10.38
2023-05-03T07:44:23.891Z,10.37
2023-05-03T07:47:27.758Z,10.32
2023-05-03T07:50:31.236Z,10.63
2023-05-03T07:53:35.437Z,9.88
2023-05-03T07:56:37.851Z,10.23
2023-05-03T07:59:40.045Z,10.05
2023-05-03T08:02:41.941Z,9.70
2023-05-03T08:05:44.704Z,9.83
2023-05-03T08:08:46.851Z,9.98
2023-05-03T08:11:48.869Z,10.50
2023-05-03T08:14:53.122Z,9.93
2023-05-03T08:17:55.800Z,9.82
2023-05-03T08:20:58.576Z,9.70
2023-05-03T08:24:00.932Z,9.68
2023-05-03T08:27:05.228Z,10.07
2023-05-03T08:30:07.800Z,10.38
2023-05-03T08:33:11.525Z,10.20
2023-05-03T08:36:13.605Z,9.90
2023-05-03T08:39:17.385Z,9.90
2023-05-03T08:42:19.489Z,10.02
2023-05-03T08:45:21.385Z,9.77
2023-05-03T08:48:23.951Z,10.45
2023-05-03T08:51:27.870Z,10.35
2023-05-03T08:54:31.336Z,10.63
2023-05-03T08:57:35.554Z,9.45
2023-05-03T09:00:38.538Z,10.35
2023-05-03T09:03:40.807Z,10.25
2023-05-03T09:06:42.661Z,10.13
2023-05-03T09:09:46.887Z,9.38
2023-05-03T09:12:58.490Z,10.27
2023-05-03T09:16:03.295Z,9.80
2023-05-03T09:19:09.474Z,9.88
2023-05-03T09:22:12.111Z,9.65
2023-05-03T09:25:14.560Z,10.05
2023-05-03T09:28:17.894Z,9.77
2023-05-03T09:31:20.619Z,9.65
2023-05-03T09:34:23.173Z,10.15
2023-05-03T09:37:40.397Z,10.27
2023-05-03T09:40:49.134Z,9.73
2023-05-03T09:43:55.840Z,9.43
2023-05-03T09:47:06.828Z,9.50
2023-05-03T09:50:10.767Z,9.70
2023-05-03T09:53:15.956Z,9.55
2023-05-03T09:56:21.077Z,9.77
2023-05-03T09:59:23.595Z,9.67
2023-05-03T10:02:27.638Z,9.10
2023-05-03T10:05:33.317Z,9.27
2023-05-03T10:08:41.070Z,9.40
2023-05-03T10:11:58.938Z,9.32
2023-05-03T10:15:06.648Z,9.32
2023-05-03T10:18:13.593Z,9.10
2023-05-03T10:21:26.419Z,9.10
2023-05-03T10:24:28.122Z,8.98
2023-05-03T10:27:48.653Z,8.80
2023-05-03T10:30:51.292Z,8.52
2023-05-03T10:33:54.754Z,8.50
2023-05-03T10:37:06.160Z,8.55
2023-05-03T10:40:17.742Z,8.55
2023-05-03T10:43:29.531Z,9.00
2023-05-03T10:46:34.366Z,8.53
2023-05-03T10:49:37.064Z,7.93
2023-05-03T10:52:39.131Z,8.57
2023-05-03T10:56:01.050Z,8.38
2023-05-03T10:59:04.869Z,8.35
2023-05-03T11:02:13.927Z,8.50
2023-05-03T11:05:25.180Z,8.45
2023-05-03T11:08:28.171Z,8.03
2023-05-03T11:11:31.305Z,8.40
2023-05-03T11:14:34.110Z,7.45
2023-05-03T11:17:39.943Z,7.68
2023-05-03T11:20:41.996Z,7.77
2023-05-03T11:24:22.961Z,7.20
2023-05-03T11:27:26.759Z,7.95
2023-05-03T11:30:35.743Z,7.40
2023-05-03T11:33:40.090Z,7.10
2023-05-03T11:36:44.771Z,7.38
2023-05-03T11:39:48.021Z,7.22
2023-05-03T11:42:59.020Z,7.30
2023-05-03T11:46:02.144Z,6.80
2023-05-03T11:49:04.838Z,6.70
2023-05-03T11:52:11.290Z,6.50
2023-05-03T11:55:13.555Z,6.93
2023-05-03T11:58:22.579Z,6.75
2023-05-03T12:01:26.125Z,6.63
2023-05-03T12:04:27.931Z,6.60
2023-05-03T12:07:31.148Z,6.82
2023-05-03T12:10:35.694Z,6.47
2023-05-03T12:13:40.522Z,7.15
2023-05-03T12:16:53.424Z,7.07
2023-05-03T12:20:51.341Z,6.50
2023-05-03T12:23:45.910Z,6.72
2023-05-03T12:26:48.945Z,6.60
2023-05-03T12:29:53.241Z,7.43
2023-05-03T12:32:58.382Z,6.70
2023-05-03T12:36:04.543Z,6.97
2023-05-03T12:39:10.103Z,7.28
2023-05-03T12:42:14.841Z,7.03
2023-05-03T12:45:21.128Z,6.65
2023-05-03T12:48:25.332Z,6.53
2023-05-03T12:51:32.778Z,6.38
2023-05-03T12:54:35.431Z,5.00
2023-05-03T12:57:39.044Z,5.18
2023-05-03T13:00:53.023Z,5.37
2023-05-03T13:07:13.276Z,5.22
2023-05-03T13:13:26.225Z,5.60
2023-05-03T13:16:27.995Z,5.93
2023-05-03T13:19:30.728Z,5.35
2023-05-03T13:22:32.896Z,5.32
2023-05-03T13:25:35.281Z,5.28
2023-05-03T13:28:37.543Z,5.50
2023-05-03T13:31:40.464Z,5.33
2023-05-03T13:34:42.212Z,5.15
2023-05-03T13:37:44.798Z,5.40
2023-05-03T13:40:46.941Z,5.30
2023-05-03T13:43:49.016Z,5.65
2023-05-03T13:46:51.006Z,5.20
2023-05-03T13:49:57.450Z,5.15
2023-05-03T13:52:59.464Z,4.97
2023-05-03T13:56:02.171Z,5.22
2023-05-03T13:59:04.824Z,5.63
2023-05-03T14:02:06.664Z,5.07
2023-05-03T14:05:10.773Z,4.80
2023-05-03T14:08:12.958Z,4.80
2023-05-03T14:11:17.154Z,4.63
2023-05-03T14:14:19.805Z,4.60
2023-05-03T14:17:23.046Z,4.37
2023-05-03T14:20:24.981Z,4.20
2023-05-03T14:23:27.101Z,4.72
2023-05-03T14:26:30.401Z,4.22
2023-05-03T14:29:35.007Z,4.82
2023-05-03T14:32:37.132Z,4.03
2023-05-03T14:35:43.408Z,3.80
2023-05-03T14:38:46.076Z,5.03
2023-05-03T14:41:50.186Z,4.20
2023-05-03T14:44:52.322Z,4.72
2023-05-03T14:47:56.093Z,4.80
2023-05-03T14:50:58.830Z,4.27
2023-05-03T14:54:03.225Z,4.10
2023-05-03T14:57:08.527Z,4.10
2023-05-03T15:00:14.881Z,4.20
2023-05-03T15:03:18.428Z,4.07
2023-05-03T15:06:32.872Z,4.17
2023-05-03T15:09:34.970Z,3.95
2023-05-03T15:12:39.230Z,4.40
2023-05-03T15:15:45.895Z,4.28
2023-05-03T15:18:48.505Z,4.57
2023-05-03T15:21:52.182Z,4.60
2023-05-03T15:25:01.568Z,4.28
2023-05-03T15:28:06.330Z,3.65
2023-05-03T15:31:08.900Z,3.60
2023-05-03T15:34:14.742Z,3.60
2023-05-03T15:37:16.948Z,3.97
2023-05-03T15:40:18.783Z,3.47
2023-05-03T15:43:21.175Z,2.90
2023-05-03T15:46:24.249Z,2.67
2023-05-03T15:49:27.514Z,3.00
2023-05-03T15:52:33.937Z,3.53
2023-05-03T15:55:36.132Z,3.58
2023-05-03T15:58:39.153Z,3.47
2023-05-03T16:01:41.446Z,3.00
2023-05-03T16:04:43.378Z,3.20
2023-05-03T16:07:45.825Z,3.53
2023-05-03T16:10:50.062Z,3.30
2023-05-03T16:13:52.531Z,3.30
2023-05-03T16:16:54.419Z,3.50
2023-05-03T16:19:56.924Z,3.77
2023-05-03T16:23:02.410Z,3.70
2023-05-03T16:26:14.398Z,3.33
2023-05-03T16:29:16.960Z,3.33
2023-05-03T16:32:19.271Z,3.40
2023-05-03T16:35:20.946Z,3.90
2023-05-03T16:38:23.241Z,3.90
2023-05-03T16:41:27.239Z,3.70
2023-05-03T16:44:30.758Z,3.70
2023-05-03T16:47:35.092Z,3.90
2023-05-03T16:50:46.764Z,3.57
2023-05-03T16:53:50.039Z,3.87
2023-05-03T16:56:54.733Z,4.57
2023-05-03T17:00:04.976Z,4.60
2023-05-03T17:03:10.297Z,4.07
2023-05-03T17:06:13.583Z,3.80
2023-05-03T17:09:16.977Z,3.88
2023-05-03T17:12:19.168Z,3.65
2023-05-03T17:15:20.903Z,4.00
2023-05-03T17:18:23.095Z,3.83
2023-05-03T17:21:25.160Z,3.90
2023-05-03T17:24:28.919Z,3.78
2023-05-03T17:27:31.451Z,3.97
2023-05-03T17:30:34.718Z,3.50
2023-05-03T17:33:36.583Z,3.53
2023-05-03T17:36:38.315Z,3.37
2023-05-03T17:39:43.498Z,3.38
2023-05-03T17:42:47.437Z,3.65
2023-05-03T17:45:52.771Z,3.53
2023-05-03T17:49:01.509Z,3.50
2023-05-03T17:52:06.553Z,3.43
2023-05-03T17:55:12.879Z,4.00
2023-05-03T17:58:21.331Z,4.63
2023-05-03T18:01:25.785Z,4.80
2023-05-03T18:04:28.545Z,4.35
2023-05-03T18:07:33.953Z,4.30
2023-05-03T18:10:36.262Z,4.50
2023-05-03T18:13:42.907Z,4.53
2023-05-03T18:16:44.974Z,4.72
2023-05-03T18:19:46.995Z,4.70
2023-05-03T18:22:49.828Z,4.47
2023-05-03T18:25:53.028Z,5.03
2023-05-03T18:28:55.479Z,4.32
2023-05-03T18:31:58.313Z,4.90
2023-05-03T18:35:02.578Z,5.45
2023-05-03T18:38:04.702Z,4.73
2023-05-03T18:41:16.905Z,5.78
2023-05-03T18:44:22.237Z,5.80
2023-05-03T18:47:25.646Z,5.82
2023-05-03T18:50:27.618Z,7.38
2023-05-03T18:53:31.563Z,6.00
2023-05-03T18:56:33.118Z,5.30
2023-05-03T18:59:45.439Z,5.60
2023-05-03T19:02:51.092Z,5.72
2023-05-03T19:05:52.746Z,5.88
2023-05-03T19:08:54.672Z,5.87
2023-05-03T19:11:58.895Z,5.60
2023-05-03T19:15:01.460Z,5.50
2023-05-03T19:18:05.596Z,5.25
2023-05-03T19:21:18.096Z,5.20
2023-05-03T19:24:20.874Z,5.90
2023-05-03T19:27:22.672Z,6.25
2023-05-03T19:30:25.346Z,6.13
2023-05-03T19:33:31.584Z,5.63
2023-05-03T19:36:34.328Z,5.47
2023-05-03T19:39:40.058Z,5.32
2023-05-03T19:42:43.018Z,4.82
2023-05-03T19:45:45.113Z,5.23
2023-05-03T19:48:49.676Z,5.38
2023-05-03T19:51:54.043Z,5.18
2023-05-03T19:54:57.785Z,4.90
2023-05-03T19:58:00.578Z,5.07
2023-05-03T20:01:02.666Z,5.30
2023-05-03T20:04:04.447Z,4.90
2023-05-03T20:07:06.221Z,5.33
2023-05-03T20:10:08.912Z,5.40
2023-05-03T20:13:11.927Z,5.28
2023-05-03T20:16:15.858Z,5.20
2023-05-03T20:19:18.537Z,5.20
2023-05-03T20:22:21.789Z,5.78
2023-05-03T20:25:25.036Z,5.50
2023-05-03T20:28:27.724Z,5.60
2023-05-03T20:31:33.816Z,5.40
2023-05-03T20:34:37.238Z,5.38
2023-05-03T20:37:40.816Z,5.70
2023-05-03T20:40:43.447Z,5.60
2023-05-03T20:43:45.694Z,5.70
2023-05-03T20:46:49.503Z,5.57
2023-05-03T20:49:53.137Z,5.13
2023-05-03T20:52:57.240Z,5.55
2023-05-03T20:56:00.898Z,5.60
2023-05-03T20:59:13.746Z,5.47
2023-05-03T21:02:17.951Z,5.70
2023-05-03T21:05:22.635Z,5.72
2023-05-03T21:08:24.586Z,5.47
2023-05-03T21:11:26.761Z,5.82
2023-05-03T21:14:30.421Z,5.53
2023-05-03T21:17:34.280Z,5.72
2023-05-03T21:20:40.115Z,5.78
2023-05-03T21:23:43.214Z,5.80
2023-05-03T21:26:45.288Z,6.20
2023-05-03T21:29:48.705Z,5.93
2023-05-03T21:32:51.946Z,6.32
2023-05-03T21:35:54.449Z,6.00
2023-05-03T21:38:56.960Z,6.55
2023-05-03T21:41:58.940Z,6.43
2023-05-03T21:45:00.983Z,6.63
2023-05-03T21:48:02.830Z,6.70
2023-05-03T21:51:08.943Z,6.78
2023-05-03T21:54:11.724Z,6.33
2023-05-03T21:57:13.804Z,6.65
2023-05-03T22:00:20.484Z,6.50
2023-05-03T22:03:23.141Z,6.40
2023-05-03T22:06:24.788Z,6.65
2023-05-03T22:09:27.595Z,6.57
2023-05-03T22:12:30.981Z,6.88
2023-05-03T22:15:32.663Z,6.80
2023-05-03T22:18:35.530Z,6.60
2023-05-03T22:21:38.206Z,6.72
2023-05-03T22:24:41.916Z,7.00
2023-05-03T22:27:43.903Z,7.30
2023-05-03T22:30:46.039Z,6.95
2023-05-03T22:33:49.000Z,6.95
2023-05-03T22:36:53.873Z,6.53
2023-05-03T22:39:56.465Z,7.05
2023-05-03T22:42:59.494Z,7.00
2023-05-03T22:46:02.510Z,7.00
2023-05-03T22:49:04.838Z,7.22
2023-05-03T22:52:09.004Z,7.20
2023-05-03T22:55:11.155Z,7.30
2023-05-03T22:58:13.379Z,6.82
2023-05-03T23:01:16.034Z,7.20
2023-05-03T23:04:18.516Z,7.80
2023-05-03T23:07:20.941Z,7.40
2023-05-03T23:10:26.256Z,7.20
2023-05-03T23:13:28.100Z,7.07
2023-05-03T23:16:33.621Z,7.27
2023-05-03T23:19:37.293Z,7.03
2023-05-03T23:22:41.073Z,7.80
2023-05-03T23:25:43.751Z,7.00
2023-05-03T23:28:46.252Z,7.35
2023-05-03T23:31:49.025Z,6.80
2023-05-03T23:34:53.426Z,6.95
2023-05-03T23:37:56.256Z,7.33
2023-05-03T23:41:00.987Z,6.90
2023-05-03T23:44:03.907Z,7.70
2023-05-03T23:47:06.890Z,7.10
2023-05-03T23:50:09.349Z,7.38
2023-05-03T23:53:11.845Z,7.18
2023-05-03T23:56:14.170Z,7.22
2023-05-03T23:59:16.910Z,7.22
